Time;durP1;ratioP1;P1;durP2;ratioP2;P2;SDS_P1;SDS_P2;PMS_P1;PMS_P2;Temp;Humidity;BMP_temperature;BMP_pressure;BME280_temperature;BME280_humidity;BME280_pressure;Samples;Min_cycle;Max_cycle;Signal;HPM_P1;HPM_P2
2022/07/02 00:00:50;;;;;;;;;;;;;;;18.27;100.00;91199.69;5033539;28;20299;-66
2022/07/02 00:03:19;;;;;;;;;;;;;;;18.33;100.00;91195.63;5033800;28;20000;-66
2022/07/02 00:05:46;;;;;;;;;;;;;;;18.41;100.00;91193.88;5033414;28;19917;-66
2022/07/02 00:08:12;;;;;;;;;;;;;;;18.41;99.67;91183.09;5033502;28;19913;-66
2022/07/02 00:10:38;;;;;;;;;;;;;;;18.42;99.34;91190.81;5033493;28;19913;-66
2022/07/02 00:13:04;;;;;;;;;;;;;;;18.36;100.00;91202.22;5033373;28;19920;-66
2022/07/02 00:15:29;;;;;;;;;;;;;;;18.33;100.00;91197.53;5033403;28;19920;-66
2022/07/02 00:17:55;;;;;;;;;;;;;;;18.27;100.00;91195.09;5033352;28;19917;-66
2022/07/02 00:20:20;;;;;;;;;;;;;;;18.27;100.00;91188.94;5033172;28;19913;-66
2022/07/02 00:22:47;;;;;;;;;;;;;;;18.30;100.00;91195.53;5033179;28;19920;-66
2022/07/02 00:25:13;;;;;;;;;;;;;;;18.27;100.00;91184.31;5033196;28;19913;-66
2022/07/02 00:27:40;;;;;;;;;;;;;;;18.25;99.91;91186.59;5033253;28;19920;-66
2022/07/02 00:30:06;;;;;;;;;;;;;;;18.30;99.34;91188.22;5033360;28;20008;-66
2022/07/02 00:32:32;;;;;;;;;;;;;;;18.23;99.52;91190.75;5015224;28;20023;-66
2022/07/02 00:35:03;;;;;;;;;;;;;;;18.21;99.06;91185.72;5033016;28;19913;-66
2022/07/02 00:37:28;;;;;;;;;;;;;;;18.31;97.45;91186.34;5032959;28;20002;-66
2022/07/02 00:39:54;;;;;;;;;;;;;;;18.33;96.29;91178.69;5032836;28;19964;-66
2022/07/02 00:42:21;;;;;;;;;;;;;;;18.34;96.45;91182.94;5032691;28;20401;-66
2022/07/02 00:44:47;;;;;;;;;;;;;;;18.39;94.77;91185.38;5032863;28;19913;-66
2022/07/02 00:47:13;;;;;;;;;;;;;;;18.43;94.07;91183.53;5032806;28;20342;-66
2022/07/02 00:49:38;;;;;;;;;;;;;;;18.44;92.97;91182.41;5032746;28;19920;-66
2022/07/02 00:52:04;;;;;;;;;;;;;;;18.45;92.04;91184.72;5032588;28;19952;-66
2022/07/02 00:54:30;;;;;;;;;;;;;;;18.53;91.55;91174.91;5032634;28;19924;-66
2022/07/02 00:56:56;;;;;;;;;;;;;;;18.56;90.08;91185.00;5032629;28;19913;-66
2022/07/02 00:59:22;;;;;;;;;;;;;;;18.64;88.78;91175.97;5032376;28;20353;-66
2022/07/02 01:01:48;;;;;;;;;;;;;;;18.66;88.00;91181.00;5032551;28;20000;-66
2022/07/02 01:04:14;;;;;;;;;;;;;;;18.69;87.56;91181.09;5032349;28;20391;-66
2022/07/02 01:06:41;;;;;;;;;;;;;;;18.69;86.96;91185.69;5032216;28;19920;-66
2022/07/02 01:11:53;;;;;;;;;;;;;;;18.60;88.27;91191.22;5032282;28;19979;-66
2022/07/02 01:14:19;;;;;;;;;;;;;;;18.57;88.88;91191.94;5032287;28;19917;-66
2022/07/02 01:16:44;;;;;;;;;;;;;;;18.49;90.29;91195.63;5032288;28;20011;-66
2022/07/02 01:19:11;;;;;;;;;;;;;;;18.41;91.96;91183.09;5032121;28;19913;-66
2022/07/02 01:21:37;;;;;;;;;;;;;;;18.29;93.85;91193.97;5032162;28;20015;-66
2022/07/02 01:24:02;;;;;;;;;;;;;;;18.15;96.46;91187.13;5032061;28;19944;-66
2022/07/02 01:26:27;;;;;;;;;;;;;;;18.10;98.50;91195.44;5032122;28;19913;-66
2022/07/02 01:28:53;;;;;;;;;;;;;;;18.03;100.00;91192.59;5032052;28;19913;-66
2022/07/02 01:31:19;;;;;;;;;;;;;;;17.84;100.00;91181.75;5032010;28;20027;-66
2022/07/02 01:33:44;;;;;;;;;;;;;;;17.73;100.00;91186.84;5031817;28;20298;-67
2022/07/02 01:36:09;;;;;;;;;;;;;;;17.62;100.00;91183.84;5031877;28;19920;-66
2022/07/02 01:38:35;;;;;;;;;;;;;;;17.42;100.00;91192.91;5031890;28;19913;-66
2022/07/02 01:43:44;;;;;;;;;;;;;;;16.88;100.00;91174.50;5031758;28;20393;-66
2022/07/02 01:46:10;;;;;;;;;;;;;;;16.75;100.00;91189.13;5031813;28;20003;-66
2022/07/02 01:48:35;;;;;;;;;;;;;;;16.70;100.00;91182.06;5031956;28;19919;-66
2022/07/02 01:51:00;;;;;;;;;;;;;;;16.66;100.00;91183.81;5031759;28;20389;-66
2022/07/02 01:53:25;;;;;;;;;;;;;;;16.73;100.00;91186.00;5031674;28;19921;-66
2022/07/02 01:55:52;;;;;;;;;;;;;;;16.79;100.00;91175.78;5031699;28;19948;-66
2022/07/02 01:58:18;;;;;;;;;;;;;;;16.86;100.00;91182.13;5014124;28;20361;-66
2022/07/02 02:00:43;;;;;;;;;;;;;;;16.95;100.00;91185.47;5031576;28;19995;-66
2022/07/02 02:03:08;;;;;;;;;;;;;;;17.03;100.00;91187.22;5031459;28;19913;-67
2022/07/02 02:05:34;;;;;;;;;;;;;;;17.10;100.00;91185.88;5164233;23;19943;-65
2022/07/02 02:07:59;;;;;;;;;;;;;;;17.13;100.00;91179.81;5011772;28;20297;-66
2022/07/02 02:10:24;;;;;;;;;;;;;;;17.10;100.00;91180.50;5014317;28;19917;-66
2022/07/02 02:12:49;;;;;;;;;;;;;;;17.13;100.00;91180.59;5015865;28;20430;-66
2022/07/02 02:15:15;;;;;;;;;;;;;;;17.19;100.00;91178.44;5015704;28;19925;-66
2022/07/02 02:17:40;;;;;;;;;;;;;;;17.16;100.00;91171.84;5016010;28;20031;-66
2022/07/02 02:20:06;;;;;;;;;;;;;;;17.21;100.00;91168.16;5015598;28;19913;-66
2022/07/02 02:22:32;;;;;;;;;;;;;;;17.26;100.00;91178.66;5015663;28;20311;-67
2022/07/02 02:24:57;;;;;;;;;;;;;;;17.20;100.00;91174.63;5015591;28;19913;-67
2022/07/02 02:27:22;;;;;;;;;;;;;;;17.18;100.00;91182.25;5015934;28;20297;-67
2022/07/02 02:29:48;;;;;;;;;;;;;;;17.16;100.00;91174.53;5015689;28;19969;-67
2022/07/02 02:32:14;;;;;;;;;;;;;;;17.10;100.00;91177.81;4997898;28;20389;-66
2022/07/02 02:34:39;;;;;;;;;;;;;;;17.14;100.00;91181.38;5015487;28;19919;-67
2022/07/02 02:37:04;;;;;;;;;;;;;;;17.17;100.00;91186.84;5015493;28;19917;-67
2022/07/02 02:39:30;;;;;;;;;;;;;;;17.16;100.00;91189.88;5015378;28;19914;-67
2022/07/02 02:41:55;;;;;;;;;;;;;;;17.13;100.00;91175.22;5015389;28;19917;-67
2022/07/02 02:44:21;;;;;;;;;;;;;;;17.15;100.00;91183.72;5015271;28;19913;-67
2022/07/02 02:46:46;;;;;;;;;;;;;;;17.20;100.00;91182.69;5015228;28;19913;-67
2022/07/02 02:49:11;;;;;;;;;;;;;;;17.22;100.00;91178.56;5015285;28;19987;-67
2022/07/02 02:51:37;;;;;;;;;;;;;;;17.24;100.00;91180.91;5015472;28;19917;-67
2022/07/02 02:54:02;;;;;;;;;;;;;;;17.21;100.00;91181.59;5015257;28;19968;-67
2022/07/02 02:56:27;;;;;;;;;;;;;;;17.23;100.00;91192.78;5014962;28;19967;-67
2022/07/02 02:58:53;;;;;;;;;;;;;;;17.17;100.00;91189.53;5015141;28;19952;-67
2022/07/02 03:01:18;;;;;;;;;;;;;;;17.15;100.00;91196.38;5014983;28;19913;-67
2022/07/02 03:03:43;;;;;;;;;;;;;;;17.18;100.00;91193.00;5015042;28;19917;-67
2022/07/02 03:06:08;;;;;;;;;;;;;;;17.21;100.00;91203.09;5014750;28;19917;-67
2022/07/02 03:08:34;;;;;;;;;;;;;;;17.24;100.00;91205.88;5015193;28;20294;-67
2022/07/02 03:10:59;;;;;;;;;;;;;;;17.30;100.00;91209.09;5014936;28;20371;-67
2022/07/02 03:13:24;;;;;;;;;;;;;;;17.27;100.00;91213.25;5014895;28;19925;-67
2022/07/02 03:15:49;;;;;;;;;;;;;;;17.27;100.00;91207.88;4997123;28;19913;-67
2022/07/02 03:18:15;;;;;;;;;;;;;;;17.35;100.00;91200.78;5014743;28;20004;-67
2022/07/02 03:20:40;;;;;;;;;;;;;;;17.40;100.00;91214.00;5013867;28;19914;-67
2022/07/02 03:23:06;;;;;;;;;;;;;;;17.44;100.00;91212.19;5014116;28;19919;-67
2022/07/02 03:25:31;;;;;;;;;;;;;;;17.42;100.00;91214.44;5014525;28;19945;-67
2022/07/02 03:27:57;;;;;;;;;;;;;;;17.45;100.00;91212.97;5015054;28;20316;-67
2022/07/02 03:30:22;;;;;;;;;;;;;;;17.50;100.00;91212.69;5014485;28;19917;-67
2022/07/02 03:32:47;;;;;;;;;;;;;;;17.54;100.00;91218.97;5014419;28;20126;-67
2022/07/02 03:35:13;;;;;;;;;;;;;;;17.60;100.00;91218.38;5014336;28;19913;-67
2022/07/02 03:37:38;;;;;;;;;;;;;;;17.69;100.00;91228.25;5014628;28;19971;-67
2022/07/02 03:40:03;;;;;;;;;;;;;;;17.66;100.00;91225.06;5014539;28;19913;-67
2022/07/02 03:42:29;;;;;;;;;;;;;;;17.78;100.00;91221.56;5014277;28;21241;-67
2022/07/02 03:44:54;;;;;;;;;;;;;;;17.88;100.00;91236.44;5014251;28;19999;-67
2022/07/02 03:47:19;;;;;;;;;;;;;;;17.91;100.00;91233.03;5014428;28;19913;-67
2022/07/02 03:49:45;;;;;;;;;;;;;;;17.94;100.00;91224.28;5014109;28;20386;-67
2022/07/02 03:52:10;;;;;;;;;;;;;;;17.98;100.00;91227.06;5014025;28;19914;-67
2022/07/02 03:54:35;;;;;;;;;;;;;;;18.02;100.00;91228.72;5013983;28;19968;-67
2022/07/02 03:57:00;;;;;;;;;;;;;;;18.03;100.00;91227.59;5014056;28;19921;-67
2022/07/02 03:59:26;;;;;;;;;;;;;;;17.99;100.00;91232.13;4996302;28;19920;-67
2022/07/02 04:01:52;;;;;;;;;;;;;;;18.07;100.00;91233.84;5013972;28;19953;-67
2022/07/02 04:04:18;;;;;;;;;;;;;;;18.18;100.00;91234.91;5013618;28;20008;-67
2022/07/02 04:06:43;;;;;;;;;;;;;;;18.23;100.00;91228.47;5013880;28;19964;-67
2022/07/02 04:09:08;;;;;;;;;;;;;;;18.32;100.00;91233.69;5013830;28;19914;-67
2022/07/02 04:11:33;;;;;;;;;;;;;;;18.38;100.00;91234.97;5013798;28;19914;-67
2022/07/02 04:13:59;;;;;;;;;;;;;;;18.45;100.00;91232.44;5013709;28;20486;-67
2022/07/02 04:16:24;;;;;;;;;;;;;;;18.57;100.00;91235.06;5013691;28;19914;-67
2022/07/02 04:18:49;;;;;;;;;;;;;;;18.72;100.00;91236.19;5013565;28;19913;-67
2022/07/02 04:21:15;;;;;;;;;;;;;;;18.75;100.00;91232.78;5013764;28;19924;-67
2022/07/02 04:23:40;;;;;;;;;;;;;;;18.81;100.00;91237.56;5013528;28;20375;-67
2022/07/02 04:26:05;;;;;;;;;;;;;;;18.88;100.00;91236.94;5013396;28;19922;-67
2022/07/02 04:28:31;;;;;;;;;;;;;;;18.96;100.00;91235.97;5013453;28;20012;-67
2022/07/02 04:30:56;;;;;;;;;;;;;;;19.06;100.00;91227.31;5013349;28;20373;-67
2022/07/02 04:33:21;;;;;;;;;;;;;;;19.23;99.60;91233.44;5012941;28;19972;-67
2022/07/02 04:35:47;;;;;;;;;;;;;;;19.35;98.08;91236.81;5013507;28;20389;-67
2022/07/02 04:38:12;;;;;;;;;;;;;;;19.48;96.26;91234.75;5013167;28;19917;-66
2022/07/02 04:40:37;;;;;;;;;;;;;;;19.59;95.15;91230.38;5013177;28;19917;-66
2022/07/02 04:43:02;;;;;;;;;;;;;;;19.75;92.97;91235.69;5013135;28;20283;-67
2022/07/02 04:45:28;;;;;;;;;;;;;;;19.90;91.59;91232.13;5012975;28;19914;-66
2022/07/02 04:47:53;;;;;;;;;;;;;;;20.15;89.32;91246.06;5013039;28;19914;-66
2022/07/02 04:50:18;;;;;;;;;;;;;;;20.20;87.91;91251.19;5012985;28;19957;-66
2022/07/02 04:52:48;;;;;;;;;;;;;;;20.18;89.07;91255.38;5012967;28;20280;-66
2022/07/02 04:55:13;;;;;;;;;;;;;;;20.29;89.74;91240.13;5012747;28;20011;-66
2022/07/02 04:57:38;;;;;;;;;;;;;;;20.30;91.58;91241.69;5012881;28;19996;-66
2022/07/02 05:00:04;;;;;;;;;;;;;;;20.43;92.30;91242.34;5012775;28;19914;-67
2022/07/02 05:02:29;;;;;;;;;;;;;;;20.56;93.40;91244.50;5012789;28;19987;-66
2022/07/02 05:04:54;;;;;;;;;;;;;;;20.73;94.45;91245.91;5012438;28;20384;-66
2022/07/02 05:07:20;;;;;;;;;;;;;;;20.82;93.86;91253.75;5012688;28;19914;-66
2022/07/02 05:09:45;;;;;;;;;;;;;;;21.07;92.82;91251.44;5012679;28;19918;-66
2022/07/02 05:12:10;;;;;;;;;;;;;;;21.33;90.95;91248.75;5012629;28;19913;-67
2022/07/02 05:14:35;;;;;;;;;;;;;;;21.62;88.63;91259.94;5012400;28;19913;-66
2022/07/02 05:17:01;;;;;;;;;;;;;;;21.84;86.03;91248.22;5012484;28;19920;-67
2022/07/02 05:19:26;;;;;;;;;;;;;;;22.15;86.54;91254.38;5012417;28;19917;-66
2022/07/02 05:21:51;;;;;;;;;;;;;;;22.37;87.86;91256.94;5012399;28;19917;-66
2022/07/02 05:24:17;;;;;;;;;;;;;;;22.31;94.29;91253.00;5012292;28;20326;-67
2022/07/02 05:26:42;;;;;;;;;;;;;;;22.34;98.42;91246.84;5012352;28;19967;-67
2022/07/02 05:29:07;;;;;;;;;;;;;;;22.70;95.70;91247.16;5012255;28;19971;-67
2022/07/02 05:31:32;;;;;;;;;;;;;;;22.83;93.67;91244.97;5012515;28;19941;-67
2022/07/02 05:33:58;;;;;;;;;;;;;;;23.02;93.59;91242.00;5012139;28;19917;-67
2022/07/02 05:36:23;;;;;;;;;;;;;;;23.23;88.56;91246.81;5012128;28;19979;-67
2022/07/02 05:38:48;;;;;;;;;;;;;;;23.49;86.71;91246.56;5012109;28;19964;-67
2022/07/02 05:41:13;;;;;;;;;;;;;;;23.21;83.92;91251.84;5011973;28;20395;-66
2022/07/02 05:43:39;;;;;;;;;;;;;;;23.33;84.45;91246.06;5011632;28;19920;-66
2022/07/02 05:46:04;;;;;;;;;;;;;;;23.50;85.88;91253.53;5011682;28;19937;-66
2022/07/02 05:48:30;;;;;;;;;;;;;;;23.74;84.96;91254.09;5011951;28;19914;-65
2022/07/02 05:50:55;;;;;;;;;;;;;;;25.17;79.55;91255.19;5011953;28;19940;-66
2022/07/02 05:53:20;;;;;;;;;;;;;;;28.02;64.36;91259.81;5011983;28;20311;-67
2022/07/02 05:55:45;;;;;;;;;;;;;;;31.25;53.51;91269.25;5011878;28;19920;-67
2022/07/02 05:58:12;;;;;;;;;;;;;;;32.93;47.15;91266.38;5011853;28;19920;-65
2022/07/02 06:00:37;;;;;;;;;;;;;;;34.83;44.23;91273.47;5011682;28;19925;-65
2022/07/02 06:03:03;;;;;;;;;;;;;;;37.10;39.95;91267.38;5011820;28;19914;-66
2022/07/02 06:08:12;;;;;;;;;;;;;;;38.85;36.12;91279.84;5011821;28;19924;-66
2022/07/02 06:10:37;;;;;;;;;;;;;;;39.83;34.49;91285.31;5011840;28;19913;-66
2022/07/02 06:13:03;;;;;;;;;;;;;;;40.34;32.78;91289.59;5011803;28;20371;-66
2022/07/02 06:15:28;;;;;;;;;;;;;;;40.38;33.23;91285.31;5011663;28;19913;-66
2022/07/02 06:17:53;;;;;;;;;;;;;;;40.20;33.24;91282.03;5011811;28;19917;-67
2022/07/02 06:20:19;;;;;;;;;;;;;;;40.80;32.26;91278.50;5011462;28;19929;-66
2022/07/02 06:22:44;;;;;;;;;;;;;;;41.96;31.37;91288.47;5011719;28;19972;-67
2022/07/02 06:25:09;;;;;;;;;;;;;;;40.50;32.49;91285.50;5011507;28;19963;-66
2022/07/02 06:27:35;;;;;;;;;;;;;;;42.27;31.13;91287.66;5011549;28;20148;-67
2022/07/02 06:30:01;;;;;;;;;;;;;;;42.06;31.22;91292.59;5011357;28;19921;-67
2022/07/02 06:32:27;;;;;;;;;;;;;;;42.31;30.87;91290.25;5011539;28;19917;-67
2022/07/02 06:34:53;;;;;;;;;;;;;;;42.45;30.77;91284.47;5011403;28;19971;-67
2022/07/02 06:37:18;;;;;;;;;;;;;;;43.29;29.21;91293.19;5011584;28;19921;-67
2022/07/02 06:39:43;;;;;;;;;;;;;;;43.36;29.32;91286.31;5011498;28;19920;-67
2022/07/02 06:42:22;;;;;;;;;;;;;;;43.15;29.62;91287.81;5011746;28;20417;-67
2022/07/02 06:44:48;;;;;;;;;;;;;;;42.27;31.02;91287.66;5011422;28;19940;-67
2022/07/02 06:47:14;;;;;;;;;;;;;;;41.90;30.52;91293.25;5011492;28;20363;-66
2022/07/02 06:49:39;;;;;;;;;;;;;;;42.63;29.22;91294.50;5011470;28;19921;-67
2022/07/02 06:52:05;;;;;;;;;;;;;;;40.82;32.35;91289.97;5011480;28;19920;-66
2022/07/02 06:54:31;;;;;;;;;;;;;;;41.35;31.24;91293.56;5011105;28;20000;-66
2022/07/02 06:56:56;;;;;;;;;;;;;;;42.29;29.12;91292.75;5014212;28;20460;-67
2022/07/02 06:59:22;;;;;;;;;;;;;;;42.92;29.06;91293.34;5015213;28;19944;-67
2022/07/02 07:01:47;;;;;;;;;;;;;;;44.50;27.93;91301.38;5015009;28;20386;-67
2022/07/02 07:04:12;;;;;;;;;;;;;;;43.67;28.20;91301.38;5014793;28;19920;-67
2022/07/02 07:06:39;;;;;;;;;;;;;;;42.88;29.18;91297.63;5014706;28;19917;-67
2022/07/02 07:09:04;;;;;;;;;;;;;;;41.94;30.42;91304.97;5015027;28;19913;-67
2022/07/02 07:11:30;;;;;;;;;;;;;;;40.63;32.74;91306.19;5014619;28;19913;-66
2022/07/02 07:13:55;;;;;;;;;;;;;;;39.61;32.58;91304.44;5014591;28;19951;-66
2022/07/02 07:16:20;;;;;;;;;;;;;;;38.88;35.68;91303.94;5014542;28;20346;-66
2022/07/02 07:18:55;;;;;;;;;;;;;;;40.46;32.98;91310.03;5014552;28;19924;-66
2022/07/02 07:21:20;;;;;;;;;;;;;;;40.13;32.53;91313.13;5014540;28;19968;-67
2022/07/02 07:23:46;;;;;;;;;;;;;;;42.13;31.58;91311.72;5014412;28;19917;-67
2022/07/02 07:26:11;;;;;;;;;;;;;;;42.04;30.68;91311.16;5014406;28;20449;-67
2022/07/02 07:28:37;;;;;;;;;;;;;;;42.93;29.50;91316.53;5014348;28;20418;-67
2022/07/02 07:31:02;;;;;;;;;;;;;;;41.85;29.86;91311.53;5014378;28;20063;-69
2022/07/02 07:33:27;;;;;;;;;;;;;;;42.78;29.38;91316.69;5014446;28;19914;-67
2022/07/02 07:35:52;;;;;;;;;;;;;;;41.55;30.06;91315.84;5014382;28;19925;-69
2022/07/02 07:38:18;;;;;;;;;;;;;;;39.90;32.13;91318.34;5014371;28;19914;-68
2022/07/02 07:40:43;;;;;;;;;;;;;;;39.37;32.61;91310.13;5014343;28;20363;-66
2022/07/02 07:43:08;;;;;;;;;;;;;;;40.45;32.82;91312.06;5014297;28;19914;-69
2022/07/02 07:45:34;;;;;;;;;;;;;;;40.49;32.26;91309.06;5014145;28;19920;-69
2022/07/02 07:48:00;;;;;;;;;;;;;;;39.81;34.11;91298.97;5014235;28;19983;-70
2022/07/02 07:50:25;;;;;;;;;;;;;;;40.56;32.96;91309.44;4996491;28;20434;-68
2022/07/02 07:52:50;;;;;;;;;;;;;;;39.22;33.53;91307.34;5014112;28;20353;-67
2022/07/02 07:55:16;;;;;;;;;;;;;;;40.51;32.50;91309.34;5013997;28;20284;-67
2022/07/02 07:57:41;;;;;;;;;;;;;;;41.23;31.33;91315.78;5013997;28;19921;-67
2022/07/02 08:00:07;;;;;;;;;;;;;;;42.32;30.26;91312.13;5013986;28;20391;-66
2022/07/02 08:02:32;;;;;;;;;;;;;;;43.28;29.88;91302.84;5013814;28;19918;-67
2022/07/02 08:04:57;;;;;;;;;;;;;;;41.94;31.37;91307.00;5013551;28;19917;-66
2022/07/02 08:07:23;;;;;;;;;;;;;;;40.43;32.25;91309.00;5013099;28;19917;-67
2022/07/02 08:09:52;;;;;;;;;;;;;;;40.87;32.36;91310.81;5013711;28;20058;-67
2022/07/02 08:12:20;;;;;;;;;;;;;;;41.51;31.38;91309.72;5013739;28;20405;-66
2022/07/02 08:14:46;;;;;;;;;;;;;;;43.40;29.60;91303.66;5013728;28;20056;-67
2022/07/02 08:17:11;;;;;;;;;;;;;;;41.27;31.00;91310.75;5013587;28;20517;-67
2022/07/02 08:19:36;;;;;;;;;;;;;;;40.77;32.73;91309.41;5013554;28;20008;-66
2022/07/02 08:22:02;;;;;;;;;;;;;;;39.47;34.23;91309.56;5013524;28;19921;-66
2022/07/02 08:24:27;;;;;;;;;;;;;;;38.79;34.04;91312.34;5013390;28;19924;-67
2022/07/02 08:26:52;;;;;;;;;;;;;;;40.09;32.63;91316.91;5013461;28;19920;-67
2022/07/02 08:29:17;;;;;;;;;;;;;;;41.06;31.79;91320.41;5013441;28;19948;-67
2022/07/02 08:31:43;;;;;;;;;;;;;;;42.17;29.88;91315.09;5013312;28;19918;-67
2022/07/02 08:34:08;;;;;;;;;;;;;;;41.37;30.87;91321.78;5013242;28;19960;-67
2022/07/02 08:36:34;;;;;;;;;;;;;;;41.82;29.25;91325.72;5013101;28;20398;-67
2022/07/02 08:38:59;;;;;;;;;;;;;;;41.33;29.97;91329.59;5013403;28;20371;-67
2022/07/02 08:41:25;;;;;;;;;;;;;;;42.64;28.88;91324.00;5013181;28;19913;-67
2022/07/02 08:43:51;;;;;;;;;;;;;;;44.02;28.02;91331.72;5012988;28;20355;-68
2022/07/02 08:46:17;;;;;;;;;;;;;;;43.73;27.56;91333.78;5013034;28;19932;-68
2022/07/02 08:48:44;;;;;;;;;;;;;;;43.28;26.73;91330.09;5013001;28;19971;-68
2022/07/02 08:51:10;;;;;;;;;;;;;;;41.33;28.61;91333.13;5013010;28;19971;-68
2022/07/02 08:53:35;;;;;;;;;;;;;;;41.40;30.19;91338.31;5012910;28;19913;-68
2022/07/02 08:56:01;;;;;;;;;;;;;;;41.70;31.11;91326.91;5012926;28;20300;-67
2022/07/02 08:58:26;;;;;;;;;;;;;;;42.53;29.59;91328.78;5012861;28;19960;-67
2022/07/02 09:00:52;;;;;;;;;;;;;;;41.92;28.08;91327.06;5013039;28;19921;-67
2022/07/02 09:03:21;;;;;;;;;;;;;;;38.29;32.46;91337.09;5012687;28;19924;-68
2022/07/02 09:05:49;;;;;;;;;;;;;;;36.75;35.81;91331.50;5012307;28;19925;-67
2022/07/02 09:08:16;;;;;;;;;;;;;;;38.18;33.88;91324.94;5012801;28;19972;-67
2022/07/02 09:10:41;;;;;;;;;;;;;;;40.85;30.26;91325.25;5012445;28;19982;-67
2022/07/02 09:13:07;;;;;;;;;;;;;;;39.56;32.73;91333.75;5012567;28;20353;-67
2022/07/02 09:15:34;;;;;;;;;;;;;;;38.35;34.14;91338.00;5012555;28;19917;-66
2022/07/02 09:17:59;;;;;;;;;;;;;;;35.89;36.92;91334.28;5012490;28;19913;-66
2022/07/02 09:20:24;;;;;;;;;;;;;;;37.32;36.04;91333.78;5012452;28;20306;-67
2022/07/02 09:22:52;;;;;;;;;;;;;;;39.57;33.94;91334.53;5012648;28;19913;-67
2022/07/02 09:25:19;;;;;;;;;;;;;;;40.63;32.02;91339.69;5012332;28;19960;-67
2022/07/02 09:27:45;;;;;;;;;;;;;;;41.75;31.04;91335.34;5012564;28;19913;-67
2022/07/02 09:30:11;;;;;;;;;;;;;;;38.13;33.44;91333.94;5012451;28;20358;-68
2022/07/02 09:32:41;;;;;;;;;;;;;;;35.22;37.28;91326.59;5012245;28;20414;-66
2022/07/02 09:35:07;;;;;;;;;;;;;;;33.90;39.87;91333.16;5012493;28;19925;-67
2022/07/02 09:37:32;;;;;;;;;;;;;;;33.29;42.28;91328.72;5012533;28;20314;-68
2022/07/02 09:40:00;;;;;;;;;;;;;;;32.23;42.23;91330.50;5012236;28;20003;-68
2022/07/02 09:42:29;;;;;;;;;;;;;;;32.22;42.27;91339.19;5012109;28;19917;-68
2022/07/02 09:44:54;;;;;;;;;;;;;;;31.72;46.15;91332.94;5012081;28;19920;-68
2022/07/02 09:47:31;;;;;;;;;;;;;;;30.28;50.33;91319.13;5012097;28;19913;-67
2022/07/02 09:49:56;;;;;;;;;;;;;;;30.24;50.51;91329.41;5012005;28;19967;-68
2022/07/02 09:52:21;;;;;;;;;;;;;;;30.23;50.18;91322.34;5012022;28;19917;-68
2022/07/02 09:54:47;;;;;;;;;;;;;;;30.01;51.77;91324.69;5011948;28;20020;-67
2022/07/02 09:57:12;;;;;;;;;;;;;;;29.69;52.05;91323.28;5012059;28;19917;-67
2022/07/02 09:59:39;;;;;;;;;;;;;;;29.97;49.82;91322.00;5011954;28;19964;-67
2022/07/02 10:02:04;;;;;;;;;;;;;;;30.27;51.26;91323.84;5011922;28;19920;-68
2022/07/02 10:04:30;;;;;;;;;;;;;;;30.73;50.77;91327.66;5011619;28;19914;-67
2022/07/02 10:06:57;;;;;;;;;;;;;;;30.60;46.85;91326.72;5011937;28;20473;-66
2022/07/02 10:09:23;;;;;;;;;;;;;;;30.72;46.42;91323.38;5011884;28;20016;-67
2022/07/02 10:11:49;;;;;;;;;;;;;;;31.63;46.11;91326.50;5011779;28;19920;-67
2022/07/02 10:14:15;;;;;;;;;;;;;;;35.83;38.62;91333.34;5011718;28;19913;-67
2022/07/02 10:16:41;;;;;;;;;;;;;;;38.50;35.32;91329.69;5012046;28;19913;-66
2022/07/02 10:19:07;;;;;;;;;;;;;;;41.97;30.34;91325.56;5011822;28;19917;-67
2022/07/02 10:21:32;;;;;;;;;;;;;;;42.14;32.43;91326.50;5011809;28;20023;-67
2022/07/02 10:23:58;;;;;;;;;;;;;;;43.53;28.83;91337.53;5011561;28;19920;-67
2022/07/02 10:26:24;;;;;;;;;;;;;;;42.62;28.80;91326.53;5011692;28;20009;-66
2022/07/02 10:28:50;;;;;;;;;;;;;;;42.58;30.78;91333.63;5011685;28;20007;-67
2022/07/02 10:31:20;;;;;;;;;;;;;;;41.68;29.44;91330.19;5013581;28;20141;-68
2022/07/02 10:33:46;;;;;;;;;;;;;;;40.56;32.45;91317.03;5015757;28;20092;-68
2022/07/02 10:36:12;;;;;;;;;;;;;;;41.08;31.25;91317.13;5015553;28;20383;-68
2022/07/02 10:38:41;;;;;;;;;;;;;;;40.79;30.52;91298.53;5015720;28;19917;-68
2022/07/02 10:41:08;;;;;;;;;;;;;;;40.26;30.34;91319.16;5015488;28;19918;-68
2022/07/02 10:43:34;;;;;;;;;;;;;;;40.24;32.79;91316.84;5015541;28;19913;-68
2022/07/02 10:46:02;;;;;;;;;;;;;;;41.08;31.32;91314.34;5015586;28;20339;-67
2022/07/02 10:48:27;;;;;;;;;;;;;;;41.40;28.96;91312.41;5015256;28;20379;-67
2022/07/02 10:50:55;;;;;;;;;;;;;;;39.99;30.83;91303.56;5015260;28;19913;-67
2022/07/02 10:53:21;;;;;;;;;;;;;;;41.74;28.62;91294.69;5015098;28;19999;-68
2022/07/02 10:55:58;;;;;;;;;;;;;;;42.01;28.45;91290.56;5015170;28;19979;-67
2022/07/02 10:58:24;;;;;;;;;;;;;;;40.84;29.22;91295.03;5015012;28;19913;-67
2022/07/02 11:00:50;;;;;;;;;;;;;;;39.34;30.90;91291.59;5015075;28;19981;-67
2022/07/02 11:03:19;;;;;;;;;;;;;;;40.61;30.41;91289.19;5015077;28;19913;-67
2022/07/02 11:06:00;;;;;;;;;;;;;;;40.55;31.26;91291.13;5014884;28;19959;-67
2022/07/02 11:08:44;;;;;;;;;;;;;;;40.43;30.89;91285.94;5014930;28;20016;-67
2022/07/02 11:11:10;;;;;;;;;;;;;;;43.02;28.12;91283.44;5014831;28;20016;-67
2022/07/02 11:13:40;;;;;;;;;;;;;;;40.41;29.99;91292.00;5014710;28;20374;-67
2022/07/02 11:16:18;;;;;;;;;;;;;;;35.89;34.83;91286.44;5014829;28;19968;-67
2022/07/02 11:18:45;;;;;;;;;;;;;;;34.89;37.72;91278.47;5014762;28;19952;-67
2022/07/02 11:21:12;;;;;;;;;;;;;;;35.56;36.36;91284.19;5014956;28;20004;-67
2022/07/02 11:23:38;;;;;;;;;;;;;;;37.31;35.99;91282.28;4996913;28;19973;-67
2022/07/02 11:26:03;;;;;;;;;;;;;;;38.74;31.81;91267.75;5014651;28;20375;-67
2022/07/02 11:28:28;;;;;;;;;;;;;;;39.34;31.61;91267.31;5014591;28;20000;-67
2022/07/02 11:30:56;;;;;;;;;;;;;;;40.38;30.49;91271.38;5014761;28;19920;-67
2022/07/02 11:33:21;;;;;;;;;;;;;;;41.18;29.55;91271.03;5014428;28;19920;-67
2022/07/02 11:35:53;;;;;;;;;;;;;;;37.89;32.42;91275.59;5014770;28;19918;-67
2022/07/02 11:38:18;;;;;;;;;;;;;;;35.24;35.54;91274.34;5014347;28;19913;-66
2022/07/02 11:40:44;;;;;;;;;;;;;;;36.93;34.50;91268.94;5014363;28;20398;-67
2022/07/02 11:43:16;;;;;;;;;;;;;;;37.66;34.74;91272.25;5013243;28;20379;-66
2022/07/02 11:45:50;;;;;;;;;;;;;;;38.69;33.69;91265.63;5014356;28;19920;-67
2022/07/02 11:48:19;;;;;;;;;;;;;;;39.48;31.46;91255.41;5014202;28;19920;-66
2022/07/02 11:50:45;;;;;;;;;;;;;;;38.45;32.05;91246.94;5014106;28;19918;-67
2022/07/02 11:53:10;;;;;;;;;;;;;;;38.41;32.40;91245.59;5014373;28;19968;-67
2022/07/02 11:55:35;;;;;;;;;;;;;;;38.31;33.66;91247.69;5014229;28;20502;-67
2022/07/02 11:58:01;;;;;;;;;;;;;;;40.68;31.18;91257.31;4996415;28;20020;-67
2022/07/02 12:00:30;;;;;;;;;;;;;;;39.70;30.71;91260.56;5013976;28;19924;-67
2022/07/02 12:02:56;;;;;;;;;;;;;;;36.73;34.30;91250.78;5013973;28;19914;-66
2022/07/02 12:05:21;;;;;;;;;;;;;;;34.93;36.65;91259.75;5013688;28;19976;-67
2022/07/02 12:07:46;;;;;;;;;;;;;;;33.98;38.91;91265.47;5013817;28;20350;-67
2022/07/02 12:10:13;;;;;;;;;;;;;;;33.61;39.89;91256.81;5013951;28;19917;-66
2022/07/02 12:12:38;;;;;;;;;;;;;;;33.44;40.11;91255.38;5013753;28;19913;-66
2022/07/02 12:15:05;;;;;;;;;;;;;;;33.09;42.07;91267.50;5013667;28;19920;-66
2022/07/02 12:17:30;;;;;;;;;;;;;;;31.98;43.72;91272.56;5013608;28;19913;-66
2022/07/02 12:19:56;;;;;;;;;;;;;;;30.24;49.17;91285.47;5013667;28;19914;-66
2022/07/02 12:22:25;;;;;;;;;;;;;;;29.00;51.02;91316.47;5013474;28;20276;-67
2022/07/02 12:24:53;;;;;;;;;;;;;;;26.90;51.13;91334.91;5013508;28;19919;-67
2022/07/02 12:27:22;;;;;;;;;;;;;;;24.66;59.14;91327.84;5013589;28;20350;-67
2022/07/02 12:29:53;;;;;;;;;;;;;;;24.21;76.13;91310.19;5013263;28;19921;-67
2022/07/02 12:32:22;;;;;;;;;;;;;;;23.71;100.00;91328.22;5013258;28;20379;-67
2022/07/02 12:34:51;;;;;;;;;;;;;;;22.24;100.00;91336.16;5013141;28;19976;-67
2022/07/02 12:37:21;;;;;;;;;;;;;;;21.48;100.00;91352.59;5013500;28;19972;-67
2022/07/02 12:39:46;;;;;;;;;;;;;;;21.32;100.00;91351.97;5013175;28;20379;-67
2022/07/02 12:42:19;;;;;;;;;;;;;;;20.76;100.00;91353.34;5013085;28;19917;-67
2022/07/02 12:44:55;;;;;;;;;;;;;;;20.56;100.00;91368.06;4995390;28;19920;-67